sensor_id;sensor_type;location;lat;lon;timestamp;P1;durP1;ratioP1;P2;durP2;ratioP2
7239;SDS011;3661;53.288;10.458;2023-08-12T00:02:16;1999.90;;;999.90;;
7239;SDS011;3661;53.288;10.458;2023-08-12T00:04:49;1999.90;;;999.90;;
7239;SDS011;3661;53.288;10.458;2023-08-12T00:07:22;1999.90;;;999.90;;
7239;SDS011;3661;53.288;10.458;2023-08-12T00:09:55;1999.90;;;999.90;;
7239;SDS011;3661;53.288;10.458;2023-08-12T00:12:28;1999.90;;;999.90;;
7239;SDS011;3661;53.288;10.458;2023-08-12T00:15:00;1999.90;;;999.90;;
7239;SDS011;3661;53.288;10.458;2023-08-12T00:17:36;1999.90;;;999.90;;
7239;SDS011;3661;53.288;10.458;2023-08-12T00:20:11;1999.90;;;999.90;;
7239;SDS011;3661;53.288;10.458;2023-08-12T00:22:45;1999.90;;;999.90;;
7239;SDS011;3661;53.288;10.458;2023-08-12T00:25:17;1999.90;;;999.90;;
7239;SDS011;3661;53.288;10.458;2023-08-12T00:27:50;1999.90;;;999.90;;
7239;SDS011;3661;53.288;10.458;2023-08-12T00:30:22;1999.90;;;999.90;;
7239;SDS011;3661;53.288;10.458;2023-08-12T00:32:54;1999.90;;;999.90;;
7239;SDS011;3661;53.288;10.458;2023-08-12T00:35:26;1999.90;;;999.90;;
7239;SDS011;3661;53.288;10.458;2023-08-12T00:38:01;1999.90;;;999.90;;
7239;SDS011;3661;53.288;10.458;2023-08-12T00:40:33;1999.90;;;999.90;;
7239;SDS011;3661;53.288;10.458;2023-08-12T00:43:06;1999.90;;;999.90;;
7239;SDS011;3661;53.288;10.458;2023-08-12T00:45:39;1986.47;;;999.90;;
7239;SDS011;3661;53.288;10.458;2023-08-12T00:48:12;1999.37;;;999.90;;
7239;SDS011;3661;53.288;10.458;2023-08-12T00:50:47;1999.90;;;999.90;;
7239;SDS011;3661;53.288;10.458;2023-08-12T00:53:22;1999.90;;;999.90;;
7239;SDS011;3661;53.288;10.458;2023-08-12T00:55:57;1999.90;;;999.90;;
7239;SDS011;3661;53.288;10.458;2023-08-12T00:58:29;1998.40;;;999.90;;
7239;SDS011;3661;53.288;10.458;2023-08-12T01:01:02;1999.90;;;999.90;;
7239;SDS011;3661;53.288;10.458;2023-08-12T01:03:34;1999.90;;;999.90;;
7239;SDS011;3661;53.288;10.458;2023-08-12T01:06:07;1999.90;;;999.90;;
7239;SDS011;3661;53.288;10.458;2023-08-12T01:08:40;1999.90;;;999.90;;
7239;SDS011;3661;53.288;10.458;2023-08-12T01:11:14;1999.90;;;999.90;;
7239;SDS011;3661;53.288;10.458;2023-08-12T01:13:58;1999.90;;;999.90;;
7239;SDS011;3661;53.288;10.458;2023-08-12T01:16:35;1989.95;;;999.90;;
7239;SDS011;3661;53.288;10.458;2023-08-12T01:19:12;1999.90;;;999.90;;
7239;SDS011;3661;53.288;10.458;2023-08-12T01:21:55;1992.50;;;999.90;;
7239;SDS011;3661;53.288;10.458;2023-08-12T01:24:35;1994.75;;;999.90;;
7239;SDS011;3661;53.288;10.458;2023-08-12T01:27:08;1995.85;;;999.90;;
7239;SDS011;3661;53.288;10.458;2023-08-12T01:29:42;1999.72;;;999.90;;
7239;SDS011;3661;53.288;10.458;2023-08-12T01:32:19;1996.85;;;999.90;;
7239;SDS011;3661;53.288;10.458;2023-08-12T01:34:58;1981.63;;;999.90;;
7239;SDS011;3661;53.288;10.458;2023-08-12T01:37:37;1974.47;;;999.90;;
7239;SDS011;3661;53.288;10.458;2023-08-12T01:40:13;1975.88;;;999.90;;
7239;SDS011;3661;53.288;10.458;2023-08-12T01:42:48;1964.97;;;999.90;;
7239;SDS011;3661;53.288;10.458;2023-08-12T01:45:21;1963.43;;;999.90;;
7239;SDS011;3661;53.288;10.458;2023-08-12T01:47:54;1984.10;;;999.90;;
7239;SDS011;3661;53.288;10.458;2023-08-12T01:50:26;1978.10;;;999.90;;
7239;SDS011;3661;53.288;10.458;2023-08-12T01:52:59;1972.00;;;999.90;;
7239;SDS011;3661;53.288;10.458;2023-08-12T01:55:33;1976.78;;;999.90;;
7239;SDS011;3661;53.288;10.458;2023-08-12T01:58:05;1945.43;;;999.90;;
7239;SDS011;3661;53.288;10.458;2023-08-12T02:00:37;1960.78;;;999.90;;
7239;SDS011;3661;53.288;10.458;2023-08-12T02:03:10;1951.73;;;999.90;;
7239;SDS011;3661;53.288;10.458;2023-08-12T02:05:42;1959.43;;;999.90;;
7239;SDS011;3661;53.288;10.458;2023-08-12T02:08:14;1980.95;;;999.90;;
7239;SDS011;3661;53.288;10.458;2023-08-12T02:10:48;1944.18;;;999.90;;
7239;SDS011;3661;53.288;10.458;2023-08-12T02:13:20;1957.65;;;999.90;;
7239;SDS011;3661;53.288;10.458;2023-08-12T02:15:52;1959.63;;;999.90;;
7239;SDS011;3661;53.288;10.458;2023-08-12T02:18:24;1961.90;;;999.90;;
7239;SDS011;3661;53.288;10.458;2023-08-12T02:20:56;1954.20;;;999.90;;
7239;SDS011;3661;53.288;10.458;2023-08-12T02:23:30;1949.60;;;999.90;;
7239;SDS011;3661;53.288;10.458;2023-08-12T02:26:03;1942.28;;;999.90;;
7239;SDS011;3661;53.288;10.458;2023-08-12T02:28:36;1944.85;;;999.90;;
7239;SDS011;3661;53.288;10.458;2023-08-12T02:31:09;1930.45;;;999.90;;
7239;SDS011;3661;53.288;10.458;2023-08-12T02:33:41;1951.82;;;999.90;;
7239;SDS011;3661;53.288;10.458;2023-08-12T02:36:13;1939.30;;;999.90;;
7239;SDS011;3661;53.288;10.458;2023-08-12T02:38:47;1925.30;;;999.90;;
7239;SDS011;3661;53.288;10.458;2023-08-12T02:41:21;1942.97;;;999.90;;
7239;SDS011;3661;53.288;10.458;2023-08-12T02:43:54;1942.97;;;999.90;;
7239;SDS011;3661;53.288;10.458;2023-08-12T02:46:26;1951.03;;;999.90;;
7239;SDS011;3661;53.288;10.458;2023-08-12T02:49:01;1944.15;;;999.90;;
7239;SDS011;3661;53.288;10.458;2023-08-12T02:51:33;1938.15;;;999.90;;
7239;SDS011;3661;53.288;10.458;2023-08-12T02:54:05;1938.80;;;999.90;;
7239;SDS011;3661;53.288;10.458;2023-08-12T02:56:39;1936.43;;;999.90;;
7239;SDS011;3661;53.288;10.458;2023-08-12T02:59:11;1936.00;;;999.90;;
7239;SDS011;3661;53.288;10.458;2023-08-12T03:01:43;1927.13;;;999.90;;
7239;SDS011;3661;53.288;10.458;2023-08-12T03:04:15;1943.47;;;999.90;;
7239;SDS011;3661;53.288;10.458;2023-08-12T03:06:47;1930.23;;;999.90;;
7239;SDS011;3661;53.288;10.458;2023-08-12T03:09:21;1918.10;;;999.90;;
7239;SDS011;3661;53.288;10.458;2023-08-12T03:11:54;1951.55;;;999.90;;
7239;SDS011;3661;53.288;10.458;2023-08-12T03:14:31;1939.90;;;999.90;;
7239;SDS011;3661;53.288;10.458;2023-08-12T03:17:11;1918.97;;;999.90;;
7239;SDS011;3661;53.288;10.458;2023-08-12T03:19:43;1928.25;;;999.90;;
7239;SDS011;3661;53.288;10.458;2023-08-12T03:22:15;1919.97;;;999.90;;
7239;SDS011;3661;53.288;10.458;2023-08-12T03:24:50;1930.63;;;999.90;;
7239;SDS011;3661;53.288;10.458;2023-08-12T03:27:24;1928.10;;;999.90;;
7239;SDS011;3661;53.288;10.458;2023-08-12T03:29:57;1918.93;;;999.90;;
7239;SDS011;3661;53.288;10.458;2023-08-12T03:32:29;1932.38;;;999.90;;
7239;SDS011;3661;53.288;10.458;2023-08-12T03:35:04;1912.25;;;999.90;;
7239;SDS011;3661;53.288;10.458;2023-08-12T03:37:37;1926.07;;;999.90;;
7239;SDS011;3661;53.288;10.458;2023-08-12T03:40:10;1917.63;;;999.90;;
7239;SDS011;3661;53.288;10.458;2023-08-12T03:42:44;1918.97;;;999.90;;
7239;SDS011;3661;53.288;10.458;2023-08-12T03:45:26;1922.40;;;999.90;;
7239;SDS011;3661;53.288;10.458;2023-08-12T03:47:58;1937.63;;;999.90;;
7239;SDS011;3661;53.288;10.458;2023-08-12T03:50:33;1923.30;;;999.90;;
7239;SDS011;3661;53.288;10.458;2023-08-12T03:53:05;1925.63;;;999.90;;
7239;SDS011;3661;53.288;10.458;2023-08-12T03:55:40;1944.53;;;999.90;;
7239;SDS011;3661;53.288;10.458;2023-08-12T03:58:14;1935.13;;;999.90;;
7239;SDS011;3661;53.288;10.458;2023-08-12T04:00:48;1918.93;;;999.90;;
7239;SDS011;3661;53.288;10.458;2023-08-12T04:03:20;1910.80;;;999.90;;
7239;SDS011;3661;53.288;10.458;2023-08-12T04:05:53;1907.57;;;999.90;;
7239;SDS011;3661;53.288;10.458;2023-08-12T04:08:26;1915.68;;;999.90;;
7239;SDS011;3661;53.288;10.458;2023-08-12T04:10:58;1910.55;;;999.90;;
7239;SDS011;3661;53.288;10.458;2023-08-12T04:13:34;1917.15;;;999.90;;
7239;SDS011;3661;53.288;10.458;2023-08-12T04:16:06;1917.28;;;999.90;;
7239;SDS011;3661;53.288;10.458;2023-08-12T04:18:38;1924.35;;;999.90;;
7239;SDS011;3661;53.288;10.458;2023-08-12T04:21:13;1916.55;;;999.90;;
7239;SDS011;3661;53.288;10.458;2023-08-12T04:23:47;1899.18;;;999.90;;
7239;SDS011;3661;53.288;10.458;2023-08-12T04:26:20;1913.43;;;999.90;;
7239;SDS011;3661;53.288;10.458;2023-08-12T04:28:53;1917.85;;;999.90;;
7239;SDS011;3661;53.288;10.458;2023-08-12T04:31:26;1909.72;;;999.90;;
7239;SDS011;3661;53.288;10.458;2023-08-12T04:33:59;1912.47;;;999.90;;
7239;SDS011;3661;53.288;10.458;2023-08-12T04:36:31;1907.38;;;999.90;;
7239;SDS011;3661;53.288;10.458;2023-08-12T04:39:03;1906.65;;;999.90;;
7239;SDS011;3661;53.288;10.458;2023-08-12T04:41:36;1913.13;;;999.90;;
7239;SDS011;3661;53.288;10.458;2023-08-12T04:44:10;1898.22;;;999.90;;
7239;SDS011;3661;53.288;10.458;2023-08-12T04:46:42;1911.32;;;999.90;;
7239;SDS011;3661;53.288;10.458;2023-08-12T04:49:14;1913.15;;;999.90;;
7239;SDS011;3661;53.288;10.458;2023-08-12T04:51:47;1906.03;;;999.90;;
7239;SDS011;3661;53.288;10.458;2023-08-12T04:54:19;1904.88;;;999.90;;
7239;SDS011;3661;53.288;10.458;2023-08-12T04:56:51;1911.25;;;999.90;;
7239;SDS011;3661;53.288;10.458;2023-08-12T04:59:25;1885.68;;;999.90;;
7239;SDS011;3661;53.288;10.458;2023-08-12T05:01:57;1911.93;;;999.90;;
7239;SDS011;3661;53.288;10.458;2023-08-12T05:04:29;1916.60;;;999.90;;
7239;SDS011;3661;53.288;10.458;2023-08-12T05:07:02;1930.70;;;999.90;;
7239;SDS011;3661;53.288;10.458;2023-08-12T05:09:34;1919.10;;;999.90;;
7239;SDS011;3661;53.288;10.458;2023-08-12T05:12:07;1910.20;;;999.90;;
7239;SDS011;3661;53.288;10.458;2023-08-12T05:14:43;1911.85;;;999.90;;
7239;SDS011;3661;53.288;10.458;2023-08-12T05:17:15;1934.43;;;999.90;;
7239;SDS011;3661;53.288;10.458;2023-08-12T05:19:48;1934.55;;;999.90;;
7239;SDS011;3661;53.288;10.458;2023-08-12T05:22:20;1918.23;;;999.90;;
7239;SDS011;3661;53.288;10.458;2023-08-12T05:24:54;1914.47;;;999.90;;
7239;SDS011;3661;53.288;10.458;2023-08-12T05:27:26;1918.43;;;999.90;;
7239;SDS011;3661;53.288;10.458;2023-08-12T05:30:00;1913.75;;;999.90;;
7239;SDS011;3661;53.288;10.458;2023-08-12T05:32:32;1924.45;;;999.90;;
7239;SDS011;3661;53.288;10.458;2023-08-12T05:35:05;1933.82;;;999.90;;
7239;SDS011;3661;53.288;10.458;2023-08-12T05:37:37;1921.95;;;999.90;;
7239;SDS011;3661;53.288;10.458;2023-08-12T05:40:09;1939.28;;;999.90;;
7239;SDS011;3661;53.288;10.458;2023-08-12T05:42:42;1944.20;;;999.90;;
7239;SDS011;3661;53.288;10.458;2023-08-12T05:45:18;1937.60;;;999.90;;
7239;SDS011;3661;53.288;10.458;2023-08-12T05:47:50;1949.18;;;999.90;;
7239;SDS011;3661;53.288;10.458;2023-08-12T05:50:23;1939.20;;;999.90;;
7239;SDS011;3661;53.288;10.458;2023-08-12T05:52:55;1930.68;;;999.90;;
7239;SDS011;3661;53.288;10.458;2023-08-12T05:55:27;1947.07;;;999.90;;
7239;SDS011;3661;53.288;10.458;2023-08-12T05:58:00;1935.43;;;999.90;;
7239;SDS011;3661;53.288;10.458;2023-08-12T06:00:33;1947.78;;;999.90;;
7239;SDS011;3661;53.288;10.458;2023-08-12T06:03:05;1941.82;;;999.90;;
7239;SDS011;3661;53.288;10.458;2023-08-12T06:05:37;1933.60;;;999.90;;
7239;SDS011;3661;53.288;10.458;2023-08-12T06:08:11;1954.38;;;999.90;;
7239;SDS011;3661;53.288;10.458;2023-08-12T06:10:44;1939.97;;;999.90;;
7239;SDS011;3661;53.288;10.458;2023-08-12T06:13:16;1959.15;;;999.90;;
7239;SDS011;3661;53.288;10.458;2023-08-12T06:15:49;1952.10;;;999.90;;
7239;SDS011;3661;53.288;10.458;2023-08-12T06:18:24;1938.10;;;999.90;;
7239;SDS011;3661;53.288;10.458;2023-08-12T06:20:56;1956.25;;;999.90;;
7239;SDS011;3661;53.288;10.458;2023-08-12T06:23:28;1951.47;;;999.90;;
7239;SDS011;3661;53.288;10.458;2023-08-12T06:26:01;1976.27;;;999.90;;
7239;SDS011;3661;53.288;10.458;2023-08-12T06:28:33;1959.22;;;999.90;;
7239;SDS011;3661;53.288;10.458;2023-08-12T06:31:07;1972.82;;;999.90;;
7239;SDS011;3661;53.288;10.458;2023-08-12T06:33:39;1972.40;;;999.90;;
7239;SDS011;3661;53.288;10.458;2023-08-12T06:36:11;1984.65;;;999.90;;
7239;SDS011;3661;53.288;10.458;2023-08-12T06:38:44;1987.03;;;999.90;;
7239;SDS011;3661;53.288;10.458;2023-08-12T06:41:16;1985.85;;;999.90;;
7239;SDS011;3661;53.288;10.458;2023-08-12T06:43:48;1993.63;;;999.90;;
7239;SDS011;3661;53.288;10.458;2023-08-12T06:46:22;1992.18;;;999.90;;
7239;SDS011;3661;53.288;10.458;2023-08-12T06:48:54;1994.97;;;999.90;;
7239;SDS011;3661;53.288;10.458;2023-08-12T06:51:26;1999.90;;;999.90;;
7239;SDS011;3661;53.288;10.458;2023-08-12T06:53:58;1999.90;;;999.90;;
7239;SDS011;3661;53.288;10.458;2023-08-12T06:56:30;1999.90;;;999.90;;
7239;SDS011;3661;53.288;10.458;2023-08-12T06:59:03;1999.90;;;999.90;;
7239;SDS011;3661;53.288;10.458;2023-08-12T07:01:36;1999.90;;;999.90;;
7239;SDS011;3661;53.288;10.458;2023-08-12T07:04:11;1999.90;;;999.90;;
7239;SDS011;3661;53.288;10.458;2023-08-12T07:06:43;1999.90;;;999.90;;
7239;SDS011;3661;53.288;10.458;2023-08-12T07:09:15;1999.90;;;999.90;;
7239;SDS011;3661;53.288;10.458;2023-08-12T07:11:48;1999.90;;;999.90;;
7239;SDS011;3661;53.288;10.458;2023-08-12T07:14:20;1999.90;;;999.90;;
7239;SDS011;3661;53.288;10.458;2023-08-12T07:16:54;1999.90;;;999.90;;
7239;SDS011;3661;53.288;10.458;2023-08-12T07:19:26;1999.90;;;999.90;;
7239;SDS011;3661;53.288;10.458;2023-08-12T07:21:58;1999.90;;;999.90;;
7239;SDS011;3661;53.288;10.458;2023-08-12T07:24:30;1999.90;;;999.90;;
7239;SDS011;3661;53.288;10.458;2023-08-12T07:27:02;1999.90;;;999.90;;
7239;SDS011;3661;53.288;10.458;2023-08-12T07:29:34;1999.90;;;999.90;;
7239;SDS011;3661;53.288;10.458;2023-08-12T07:32:08;1999.90;;;999.90;;
7239;SDS011;3661;53.288;10.458;2023-08-12T07:34:40;1999.90;;;999.90;;
7239;SDS011;3661;53.288;10.458;2023-08-12T07:37:12;1999.90;;;999.90;;
7239;SDS011;3661;53.288;10.458;2023-08-12T07:39:44;1999.90;;;999.90;;
7239;SDS011;3661;53.288;10.458;2023-08-12T07:42:16;1999.90;;;999.90;;
7239;SDS011;3661;53.288;10.458;2023-08-12T07:44:48;1999.90;;;999.90;;
7239;SDS011;3661;53.288;10.458;2023-08-12T07:47:22;1999.90;;;999.90;;
7239;SDS011;3661;53.288;10.458;2023-08-12T07:49:54;1999.90;;;999.90;;
7239;SDS011;3661;53.288;10.458;2023-08-12T07:52:26;1999.90;;;999.90;;
7239;SDS011;3661;53.288;10.458;2023-08-12T07:54:58;1999.90;;;999.90;;
7239;SDS011;3661;53.288;10.458;2023-08-12T07:57:31;1999.90;;;999.90;;
7239;SDS011;3661;53.288;10.458;2023-08-12T08:00:05;1999.90;;;999.90;;
7239;SDS011;3661;53.288;10.458;2023-08-12T08:02:39;1999.90;;;999.90;;
7239;SDS011;3661;53.288;10.458;2023-08-12T08:05:12;1999.90;;;999.90;;
7239;SDS011;3661;53.288;10.458;2023-08-12T08:07:44;1999.90;;;999.90;;
7239;SDS011;3661;53.288;10.458;2023-08-12T08:10:16;1999.90;;;999.90;;
7239;SDS011;3661;53.288;10.458;2023-08-12T08:12:48;1999.90;;;999.90;;
7239;SDS011;3661;53.288;10.458;2023-08-12T08:15:20;1999.90;;;999.90;;
7239;SDS011;3661;53.288;10.458;2023-08-12T08:17:55;1999.90;;;999.90;;
7239;SDS011;3661;53.288;10.458;2023-08-12T08:20:27;1999.90;;;999.90;;
7239;SDS011;3661;53.288;10.458;2023-08-12T08:22:59;1999.90;;;999.90;;
7239;SDS011;3661;53.288;10.458;2023-08-12T08:25:31;1999.90;;;999.90;;
7239;SDS011;3661;53.288;10.458;2023-08-12T08:28:04;1999.90;;;999.90;;
7239;SDS011;3661;53.288;10.458;2023-08-12T08:30:36;1999.90;;;999.90;;
7239;SDS011;3661;53.288;10.458;2023-08-12T08:33:10;1999.90;;;999.90;;
7239;SDS011;3661;53.288;10.458;2023-08-12T08:35:42;1999.90;;;999.90;;
7239;SDS011;3661;53.288;10.458;2023-08-12T08:38:14;1999.90;;;999.90;;
7239;SDS011;3661;53.288;10.458;2023-08-12T08:40:48;1999.90;;;999.90;;
7239;SDS011;3661;53.288;10.458;2023-08-12T08:43:21;1999.90;;;999.90;;
7239;SDS011;3661;53.288;10.458;2023-08-12T08:45:54;1999.90;;;999.90;;
7239;SDS011;3661;53.288;10.458;2023-08-12T08:48:29;1999.90;;;999.90;;
7239;SDS011;3661;53.288;10.458;2023-08-12T08:51:01;1999.90;;;999.90;;
7239;SDS011;3661;53.288;10.458;2023-08-12T08:53:35;1999.90;;;999.90;;
7239;SDS011;3661;53.288;10.458;2023-08-12T08:56:09;1999.90;;;999.90;;
7239;SDS011;3661;53.288;10.458;2023-08-12T08:58:42;1999.90;;;999.90;;
7239;SDS011;3661;53.288;10.458;2023-08-12T09:01:14;1999.90;;;999.90;;
7239;SDS011;3661;53.288;10.458;2023-08-12T09:03:51;1999.90;;;999.90;;
7239;SDS011;3661;53.288;10.458;2023-08-12T09:06:28;1999.90;;;999.90;;
7239;SDS011;3661;53.288;10.458;2023-08-12T09:09:00;1999.90;;;999.90;;
7239;SDS011;3661;53.288;10.458;2023-08-12T09:11:33;1999.90;;;999.90;;
7239;SDS011;3661;53.288;10.458;2023-08-12T09:14:06;1999.90;;;999.90;;
7239;SDS011;3661;53.288;10.458;2023-08-12T09:16:38;1999.90;;;999.90;;
7239;SDS011;3661;53.288;10.458;2023-08-12T09:19:13;1999.90;;;999.90;;
7239;SDS011;3661;53.288;10.458;2023-08-12T09:21:46;1999.90;;;999.90;;
7239;SDS011;3661;53.288;10.458;2023-08-12T09:24:24;1999.90;;;999.90;;
7239;SDS011;3661;53.288;10.458;2023-08-12T09:26:57;1999.90;;;999.90;;
7239;SDS011;3661;53.288;10.458;2023-08-12T09:29:29;1999.90;;;999.90;;
7239;SDS011;3661;53.288;10.458;2023-08-12T09:32:06;1999.90;;;999.90;;
7239;SDS011;3661;53.288;10.458;2023-08-12T09:34:47;1999.90;;;999.90;;
7239;SDS011;3661;53.288;10.458;2023-08-12T09:37:23;1999.90;;;999.90;;
7239;SDS011;3661;53.288;10.458;2023-08-12T09:39:55;1999.90;;;999.90;;
7239;SDS011;3661;53.288;10.458;2023-08-12T09:42:28;1999.90;;;999.90;;
7239;SDS011;3661;53.288;10.458;2023-08-12T09:45:00;1999.90;;;999.90;;
7239;SDS011;3661;53.288;10.458;2023-08-12T09:47:36;1999.90;;;999.90;;
7239;SDS011;3661;53.288;10.458;2023-08-12T09:50:13;1999.90;;;999.90;;
7239;SDS011;3661;53.288;10.458;2023-08-12T09:52:45;1999.90;;;999.90;;
7239;SDS011;3661;53.288;10.458;2023-08-12T09:55:18;1999.90;;;999.90;;
7239;SDS011;3661;53.288;10.458;2023-08-12T09:57:52;1999.90;;;999.90;;
7239;SDS011;3661;53.288;10.458;2023-08-12T10:00:27;1999.90;;;999.90;;
7239;SDS011;3661;53.288;10.458;2023-08-12T10:02:59;1999.90;;;999.90;;
7239;SDS011;3661;53.288;10.458;2023-08-12T10:05:35;1999.90;;;999.90;;
7239;SDS011;3661;53.288;10.458;2023-08-12T10:08:08;1999.90;;;999.90;;
7239;SDS011;3661;53.288;10.458;2023-08-12T10:10:42;1999.90;;;999.90;;
7239;SDS011;3661;53.288;10.458;2023-08-12T10:13:14;1999.90;;;999.90;;
7239;SDS011;3661;53.288;10.458;2023-08-12T10:15:47;1999.90;;;999.90;;
7239;SDS011;3661;53.288;10.458;2023-08-12T10:18:20;1999.90;;;999.90;;
7239;SDS011;3661;53.288;10.458;2023-08-12T10:20:57;1999.90;;;999.90;;
7239;SDS011;3661;53.288;10.458;2023-08-12T10:23:31;1999.90;;;999.90;;
7239;SDS011;3661;53.288;10.458;2023-08-12T10:26:05;1999.90;;;999.90;;
7239;SDS011;3661;53.288;10.458;2023-08-12T10:28:38;1999.90;;;999.90;;
7239;SDS011;3661;53.288;10.458;2023-08-12T10:31:11;1999.90;;;999.90;;
7239;SDS011;3661;53.288;10.458;2023-08-12T10:33:45;1999.90;;;999.90;;
7239;SDS011;3661;53.288;10.458;2023-08-12T10:36:22;1999.90;;;999.90;;
7239;SDS011;3661;53.288;10.458;2023-08-12T10:38:55;1999.90;;;999.90;;
7239;SDS011;3661;53.288;10.458;2023-08-12T10:41:27;1999.90;;;999.90;;
7239;SDS011;3661;53.288;10.458;2023-08-12T10:44:01;1999.90;;;999.90;;
7239;SDS011;3661;53.288;10.458;2023-08-12T10:46:36;1999.90;;;999.90;;
7239;SDS011;3661;53.288;10.458;2023-08-12T10:49:09;1999.90;;;999.90;;
7239;SDS011;3661;53.288;10.458;2023-08-12T10:51:46;1999.90;;;999.90;;
7239;SDS011;3661;53.288;10.458;2023-08-12T10:54:20;1999.90;;;999.90;;
7239;SDS011;3661;53.288;10.458;2023-08-12T10:57:10;1999.90;;;999.90;;
7239;SDS011;3661;53.288;10.458;2023-08-12T10:59:52;1999.90;;;999.90;;
7239;SDS011;3661;53.288;10.458;2023-08-12T11:02:26;1999.90;;;999.90;;
7239;SDS011;3661;53.288;10.458;2023-08-12T11:05:01;1999.90;;;999.90;;
7239;SDS011;3661;53.288;10.458;2023-08-12T11:07:38;1999.90;;;999.90;;
7239;SDS011;3661;53.288;10.458;2023-08-12T11:10:12;1999.90;;;999.90;;
7239;SDS011;3661;53.288;10.458;2023-08-12T11:12:49;1999.90;;;999.90;;
7239;SDS011;3661;53.288;10.458;2023-08-12T11:15:29;1999.90;;;999.90;;
7239;SDS011;3661;53.288;10.458;2023-08-12T11:18:03;1999.90;;;999.90;;
7239;SDS011;3661;53.288;10.458;2023-08-12T11:20:36;1999.90;;;999.90;;
7239;SDS011;3661;53.288;10.458;2023-08-12T11:23:11;1999.90;;;999.90;;
7239;SDS011;3661;53.288;10.458;2023-08-12T11:25:43;1999.90;;;999.90;;
7239;SDS011;3661;53.288;10.458;2023-08-12T11:28:17;1999.90;;;999.90;;
7239;SDS011;3661;53.288;10.458;2023-08-12T11:30:50;1999.90;;;999.90;;
7239;SDS011;3661;53.288;10.458;2023-08-12T11:33:23;1999.90;;;999.90;;
7239;SDS011;3661;53.288;10.458;2023-08-12T11:35:55;1999.90;;;999.90;;
7239;SDS011;3661;53.288;10.458;2023-08-12T11:38:29;1999.90;;;999.90;;
7239;SDS011;3661;53.288;10.458;2023-08-12T11:41:02;1999.90;;;999.90;;
7239;SDS011;3661;53.288;10.458;2023-08-12T11:43:34;1999.90;;;999.90;;
7239;SDS011;3661;53.288;10.458;2023-08-12T11:46:07;1999.90;;;999.90;;
7239;SDS011;3661;53.288;10.458;2023-08-12T11:48:39;1999.90;;;999.90;;
7239;SDS011;3661;53.288;10.458;2023-08-12T11:51:11;1999.90;;;999.90;;
7239;SDS011;3661;53.288;10.458;2023-08-12T11:53:45;1999.90;;;999.90;;
7239;SDS011;3661;53.288;10.458;2023-08-12T11:56:17;1999.90;;;999.90;;
7239;SDS011;3661;53.288;10.458;2023-08-12T11:58:51;1999.90;;;999.90;;
7239;SDS011;3661;53.288;10.458;2023-08-12T12:01:24;1999.90;;;999.90;;
7239;SDS011;3661;53.288;10.458;2023-08-12T12:03:59;1999.90;;;999.90;;
7239;SDS011;3661;53.288;10.458;2023-08-12T12:06:32;1999.90;;;999.90;;
7239;SDS011;3661;53.288;10.458;2023-08-12T12:09:09;1999.90;;;999.90;;
7239;SDS011;3661;53.288;10.458;2023-08-12T12:11:42;1999.90;;;999.90;;
7239;SDS011;3661;53.288;10.458;2023-08-12T12:14:14;1999.90;;;999.90;;
7239;SDS011;3661;53.288;10.458;2023-08-12T12:16:46;1999.90;;;999.90;;
7239;SDS011;3661;53.288;10.458;2023-08-12T12:19:21;1999.90;;;999.90;;
7239;SDS011;3661;53.288;10.458;2023-08-12T12:21:54;1999.90;;;999.90;;
7239;SDS011;3661;53.288;10.458;2023-08-12T12:24:29;1999.90;;;999.90;;
7239;SDS011;3661;53.288;10.458;2023-08-12T12:27:02;1999.90;;;999.90;;
7239;SDS011;3661;53.288;10.458;2023-08-12T12:29:35;1999.90;;;999.90;;
7239;SDS011;3661;53.288;10.458;2023-08-12T12:32:07;1999.90;;;999.90;;
7239;SDS011;3661;53.288;10.458;2023-08-12T12:34:39;1999.90;;;999.90;;
7239;SDS011;3661;53.288;10.458;2023-08-12T12:37:11;1999.90;;;999.90;;
7239;SDS011;3661;53.288;10.458;2023-08-12T12:39:45;1999.90;;;999.90;;
7239;SDS011;3661;53.288;10.458;2023-08-12T12:42:17;1999.90;;;999.90;;
7239;SDS011;3661;53.288;10.458;2023-08-12T12:44:50;1999.90;;;999.90;;
7239;SDS011;3661;53.288;10.458;2023-08-12T12:47:22;1999.90;;;999.90;;
7239;SDS011;3661;53.288;10.458;2023-08-12T12:49:54;1999.90;;;999.90;;
7239;SDS011;3661;53.288;10.458;2023-08-12T12:52:26;1999.90;;;999.90;;
7239;SDS011;3661;53.288;10.458;2023-08-12T12:54:59;1999.90;;;999.90;;
7239;SDS011;3661;53.288;10.458;2023-08-12T12:57:34;1999.90;;;999.90;;
7239;SDS011;3661;53.288;10.458;2023-08-12T13:00:06;1999.90;;;999.90;;
7239;SDS011;3661;53.288;10.458;2023-08-12T13:02:41;1999.90;;;999.90;;
7239;SDS011;3661;53.288;10.458;2023-08-12T13:05:14;1999.90;;;999.90;;
7239;SDS011;3661;53.288;10.458;2023-08-12T13:07:46;1999.90;;;999.90;;
7239;SDS011;3661;53.288;10.458;2023-08-12T13:10:20;1999.90;;;999.90;;
7239;SDS011;3661;53.288;10.458;2023-08-12T13:12:52;1999.90;;;999.90;;
7239;SDS011;3661;53.288;10.458;2023-08-12T13:15:24;1999.90;;;999.90;;
7239;SDS011;3661;53.288;10.458;2023-08-12T13:17:57;1999.90;;;999.90;;
7239;SDS011;3661;53.288;10.458;2023-08-12T13:20:29;1999.90;;;999.90;;
7239;SDS011;3661;53.288;10.458;2023-08-12T13:23:01;1999.90;;;999.90;;
7239;SDS011;3661;53.288;10.458;2023-08-12T13:25:37;1999.90;;;999.90;;
7239;SDS011;3661;53.288;10.458;2023-08-12T13:28:09;1999.90;;;999.90;;
7239;SDS011;3661;53.288;10.458;2023-08-12T13:30:43;1999.90;;;999.90;;
7239;SDS011;3661;53.288;10.458;2023-08-12T13:33:16;1999.90;;;999.90;;
7239;SDS011;3661;53.288;10.458;2023-08-12T13:35:48;1999.90;;;999.90;;
7239;SDS011;3661;53.288;10.458;2023-08-12T13:38:20;1999.90;;;999.90;;
7239;SDS011;3661;53.288;10.458;2023-08-12T13:40:54;1999.90;;;999.90;;
7239;SDS011;3661;53.288;10.458;2023-08-12T13:43:26;1999.90;;;999.90;;
7239;SDS011;3661;53.288;10.458;2023-08-12T13:45:59;1999.90;;;999.90;;
7239;SDS011;3661;53.288;10.458;2023-08-12T13:48:32;1999.90;;;999.90;;
7239;SDS011;3661;53.288;10.458;2023-08-12T13:51:04;1999.90;;;999.90;;
7239;SDS011;3661;53.288;10.458;2023-08-12T13:53:37;1999.90;;;999.90;;
7239;SDS011;3661;53.288;10.458;2023-08-12T13:56:11;1999.90;;;999.90;;
7239;SDS011;3661;53.288;10.458;2023-08-12T13:58:43;1999.90;;;999.90;;
7239;SDS011;3661;53.288;10.458;2023-08-12T14:01:15;1999.90;;;999.90;;
7239;SDS011;3661;53.288;10.458;2023-08-12T14:03:47;1999.90;;;999.90;;
7239;SDS011;3661;53.288;10.458;2023-08-12T14:06:20;1999.90;;;999.90;;
7239;SDS011;3661;53.288;10.458;2023-08-12T14:08:52;1999.90;;;999.90;;
7239;SDS011;3661;53.288;10.458;2023-08-12T14:11:26;1999.90;;;999.90;;
7239;SDS011;3661;53.288;10.458;2023-08-12T14:13:58;1999.90;;;999.90;;
7239;SDS011;3661;53.288;10.458;2023-08-12T14:16:30;1999.90;;;999.90;;
7239;SDS011;3661;53.288;10.458;2023-08-12T14:19:02;1999.90;;;999.90;;
7239;SDS011;3661;53.288;10.458;2023-08-12T14:21:35;1999.90;;;999.90;;
7239;SDS011;3661;53.288;10.458;2023-08-12T14:24:07;1999.90;;;999.90;;
7239;SDS011;3661;53.288;10.458;2023-08-12T14:26:41;1999.90;;;999.90;;
7239;SDS011;3661;53.288;10.458;2023-08-12T14:29:13;1999.90;;;999.90;;
7239;SDS011;3661;53.288;10.458;2023-08-12T14:31:45;1999.90;;;999.90;;